Alta, California
Current Conditions -  °F | °C
As of 5:52 AM on Tuesday 21 Oct 2014 (Local Time) from KBLU Reporting Station
Clear Clear  
Wind Chill: -1°   Ceiling: Unl
Heat Index:   Visibility: 10mi
Dew Point: -1°   Wind: 5mph
Humidity: 85%   Direction: 100°E
Pressure: 30.11"   Gusts: NA
Location:  39.21°N, 120.81°W
Report Text: KBLU 211252Z AUTO 10004KT 10SM CLR 02/M01 A3011 RMK AO2 SLP177 T00171006
Loading
Personal Weather Stations






























Interactive Weather Map
Tropical Storm Tracking
New forecast layout! Learn more

10-Day Weather Forecast

Advertisements
Track Severe Weather on mobile